PDT,Max TemperatureF,Mean TemperatureF,Min TemperatureF,Max Dew PointF,MeanDew PointF,Min DewpointF,Max Humidity, Mean Humidity, Min Humidity, Max Sea Level PressureIn, Mean Sea Level PressureIn, Min Sea Level PressureIn, Max VisibilityMiles, Mean VisibilityMiles, Min VisibilityMiles, Max Wind SpeedMPH, Mean Wind SpeedMPH, Max Gust SpeedMPH,PrecipitationIn, CloudCover, Events, WindDirDegrees
2013-5-1,64,47,30,23,18,11,63,38,13,30.71,30.57,30.38,10,10,10,14,4,20,0.00,0,,230
2013-5-2,73,54,35,34,24,20,59,37,14,30.59,30.44,30.23,10,10,9,12,4,25,0.00,0,,89
2013-5-3,80,65,50,38,33,30,54,36,17,30.29,30.23,30.14,10,10,10,24,13,31,0.00,0,,10
2013-5-4,82,67,51,35,30,24,50,32,13,30.25,30.14,30.03,10,10,10,25,14,31,0.00,2,,34
2013-5-5,86,67,47,32,30,25,50,31,11,30.04,29.92,29.81,10,10,10,24,11,29,0.00,0,,33
2013-5-6,90,68,46,36,31,24,50,30,10,29.87,29.79,29.69,10,10,10,14,6,17,0.00,0,,360
2013-5-7,90,68,46,37,32,23,61,35,9,29.82,29.79,29.74,10,10,10,9,3,13,0.00,0,,11
2013-5-8,91,71,50,45,40,35,59,37,15,29.96,29.91,29.83,10,10,10,12,5,15,0.00,0,,202
2013-5-9,93,73,52,46,37,28,66,38,10,30.06,30.01,29.96,10,10,10,7,4,9,0.00,0,,228
2013-5-10,94,72,49,42,37,29,64,37,10,30.11,30.06,30.01,10,10,10,13,4,16,0.00,0,,34
2013-5-11,92,75,57,48,41,32,55,35,14,30.08,30.02,29.93,10,10,10,13,5,18,0.00,0,,161
2013-5-12,84,74,63,53,50,47,63,47,30,29.98,29.95,29.93,10,10,10,18,8,23,0.00,2,,226
2013-5-13,73,62,50,49,42,25,60,45,29,30.10,29.96,29.88,10,10,10,35,15,40,0.01,5,Rain,231
2013-5-14,69,57,44,35,28,21,65,41,17,30.16,30.10,30.03,10,10,7,13,6,17,0.00,0,,198
2013-5-15,69,54,39,41,34,30,73,50,26,30.07,30.00,29.92,10,10,10,14,5,17,0.00,3,,176
2013-5-16,73,63,52,47,43,37,83,56,29,29.95,29.89,29.82,10,10,10,10,5,16,T,5,,106
2013-5-17,76,62,48,51,45,42,80,57,33,29.93,29.88,29.84,10,10,10,18,6,24,0.00,2,,103
2013-5-18,71,60,48,44,39,31,80,53,26,30.11,30.01,29.93,10,10,10,17,8,23,0.00,6,,208
2013-5-19,75,64,52,43,37,34,57,40,23,30.24,30.20,30.13,10,10,10,16,7,22,0.00,3,,276
2013-5-20,77,61,45,44,41,38,82,53,24,30.25,30.10,29.82,10,10,10,15,4,22,0.00,0,,155
2013-5-21,68,58,47,49,46,41,89,65,40,29.79,29.70,29.63,10,10,7,23,9,28,0.10,4,Rain,174
2013-5-22,56,49,41,45,39,34,89,68,46,30.13,29.88,29.76,10,10,10,21,12,26,0.01,7,,144
2013-5-23,64,50,37,39,35,28,93,57,27,30.18,30.03,29.96,10,10,10,10,5,,0.00,2,,123
2013-5-24,60,50,40,46,40,34,86,65,44,30.00,29.97,29.93,10,10,6,12,5,14,0.08,4,Rain,172
2013-5-25,69,53,36,43,37,33,92,61,29,30.15,30.00,29.94,10,10,10,15,5,18,0.00,1,,237
2013-5-26,73,59,44,48,41,37,76,53,29,29.96,29.93,29.90,10,10,10,17,7,22,0.00,5,,244
2013-5-27,67,56,45,52,46,39,96,68,40,29.91,29.84,29.78,10,10,7,17,7,23,0.03,4,Rain,187
2013-5-28,72,60,47,52,46,37,100,66,31,29.83,29.79,29.72,10,10,7,14,5,20,0.00,5,,212
2013-5-29,62,55,47,54,47,40,86,75,64,29.88,29.75,29.67,10,9,1,14,6,20,0.47,5,Rain,139
2013-5-30,70,57,44,43,38,30,83,53,23,30.12,30.00,29.89,10,10,10,14,7,18,0.00,2,,227
2013-5-31,72,59,45,41,37,31,83,53,22,30.27,30.22,30.14,10,10,10,14,4,20,0.00,0,,206